Channel Point, Australia
Current Conditions -  °F | °C
As of 8:00 AM on Thursday 27 Nov 2014 (Local Time) from YPDN Reporting Station
Broken Clouds Broken Clouds  
Wind Chill: 84°   Ceiling: 35000
Heat Index: 91°   Visibility: 6mi
Dew Point: 73°   Wind: 7mph
Humidity: 70%   Direction: 60°ENE
Pressure: 29.8"   Gusts: NA
Location:  13.17°S, 130.12°E
Report Text: YPDN 262300Z 06006KT 9999 FEW022 SCT150 BKN350 29/23 Q1009 NOSIG
Loading
Personal Weather Stations






























Interactive Weather Map New forecast layout! Learn more

10-Day Weather Forecast

Advertisements
Track Severe Weather on mobile